sensor_id;sensor_type;location;lat;lon;timestamp;P1;durP1;ratioP1;P2;durP2;ratioP2
56991;SDS011;42885;49.754;18.636;2022-11-20T00:02:16;120.50;;;53.25;;
56991;SDS011;42885;49.754;18.636;2022-11-20T00:04:47;115.17;;;54.45;;
56991;SDS011;42885;49.754;18.636;2022-11-20T00:07:18;107.25;;;51.63;;
56991;SDS011;42885;49.754;18.636;2022-11-20T00:09:49;105.03;;;51.23;;
56991;SDS011;42885;49.754;18.636;2022-11-20T00:12:19;103.33;;;50.80;;
56991;SDS011;42885;49.754;18.636;2022-11-20T00:14:50;110.95;;;51.08;;
56991;SDS011;42885;49.754;18.636;2022-11-20T00:17:22;102.85;;;48.78;;
56991;SDS011;42885;49.754;18.636;2022-11-20T00:19:53;103.47;;;49.13;;
56991;SDS011;42885;49.754;18.636;2022-11-20T00:22:24;103.38;;;49.35;;
56991;SDS011;42885;49.754;18.636;2022-11-20T00:24:55;100.65;;;49.48;;
56991;SDS011;42885;49.754;18.636;2022-11-20T00:27:26;106.60;;;51.57;;
56991;SDS011;42885;49.754;18.636;2022-11-20T00:29:57;117.50;;;53.30;;
56991;SDS011;42885;49.754;18.636;2022-11-20T00:32:28;109.55;;;51.25;;
56991;SDS011;42885;49.754;18.636;2022-11-20T00:35:00;107.58;;;51.02;;
56991;SDS011;42885;49.754;18.636;2022-11-20T00:37:32;106.27;;;50.17;;
56991;SDS011;42885;49.754;18.636;2022-11-20T00:40:03;116.60;;;51.08;;
56991;SDS011;42885;49.754;18.636;2022-11-20T00:42:35;106.40;;;49.48;;
56991;SDS011;42885;49.754;18.636;2022-11-20T00:45:06;112.05;;;50.80;;
56991;SDS011;42885;49.754;18.636;2022-11-20T00:47:37;110.28;;;49.83;;
56991;SDS011;42885;49.754;18.636;2022-11-20T00:50:08;109.22;;;51.48;;
56991;SDS011;42885;49.754;18.636;2022-11-20T00:52:39;121.15;;;54.38;;
56991;SDS011;42885;49.754;18.636;2022-11-20T00:55:10;124.70;;;54.45;;
56991;SDS011;42885;49.754;18.636;2022-11-20T00:57:41;118.77;;;53.58;;
56991;SDS011;42885;49.754;18.636;2022-11-20T01:00:15;116.80;;;54.30;;
56991;SDS011;42885;49.754;18.636;2022-11-20T01:02:46;127.30;;;55.88;;
56991;SDS011;42885;49.754;18.636;2022-11-20T01:05:17;129.27;;;57.38;;
56991;SDS011;42885;49.754;18.636;2022-11-20T01:07:48;122.98;;;55.55;;
56991;SDS011;42885;49.754;18.636;2022-11-20T01:10:19;124.58;;;56.83;;
56991;SDS011;42885;49.754;18.636;2022-11-20T01:12:50;122.00;;;56.65;;
56991;SDS011;42885;49.754;18.636;2022-11-20T01:15:22;119.37;;;57.33;;
56991;SDS011;42885;49.754;18.636;2022-11-20T01:17:53;127.27;;;56.85;;
56991;SDS011;42885;49.754;18.636;2022-11-20T01:20:24;120.83;;;55.87;;
56991;SDS011;42885;49.754;18.636;2022-11-20T01:22:55;121.00;;;55.30;;
56991;SDS011;42885;49.754;18.636;2022-11-20T01:25:26;126.33;;;55.33;;
56991;SDS011;42885;49.754;18.636;2022-11-20T01:27:57;122.13;;;54.83;;
56991;SDS011;42885;49.754;18.636;2022-11-20T01:30:28;116.17;;;54.77;;
56991;SDS011;42885;49.754;18.636;2022-11-20T01:32:59;117.20;;;54.30;;
56991;SDS011;42885;49.754;18.636;2022-11-20T01:35:30;113.20;;;52.78;;
56991;SDS011;42885;49.754;18.636;2022-11-20T01:38:01;107.40;;;50.17;;
56991;SDS011;42885;49.754;18.636;2022-11-20T01:40:32;106.00;;;50.33;;
56991;SDS011;42885;49.754;18.636;2022-11-20T01:43:18;98.33;;;49.08;;
56991;SDS011;42885;49.754;18.636;2022-11-20T01:48:35;102.30;;;49.37;;
56991;SDS011;42885;49.754;18.636;2022-11-20T01:51:08;96.75;;;47.00;;
56991;SDS011;42885;49.754;18.636;2022-11-20T01:56:10;111.28;;;48.75;;
56991;SDS011;42885;49.754;18.636;2022-11-20T01:58:47;102.42;;;48.50;;
56991;SDS011;42885;49.754;18.636;2022-11-20T02:01:18;102.47;;;47.73;;
56991;SDS011;42885;49.754;18.636;2022-11-20T02:03:51;96.60;;;48.70;;
56991;SDS011;42885;49.754;18.636;2022-11-20T02:06:24;97.37;;;48.10;;
56991;SDS011;42885;49.754;18.636;2022-11-20T02:08:57;102.05;;;49.20;;
56991;SDS011;42885;49.754;18.636;2022-11-20T02:11:29;108.67;;;50.35;;
56991;SDS011;42885;49.754;18.636;2022-11-20T02:14:01;106.47;;;49.23;;
56991;SDS011;42885;49.754;18.636;2022-11-20T02:16:44;99.07;;;47.83;;
56991;SDS011;42885;49.754;18.636;2022-11-20T02:19:13;102.55;;;49.30;;
56991;SDS011;42885;49.754;18.636;2022-11-20T02:22:02;98.30;;;47.50;;
56991;SDS011;42885;49.754;18.636;2022-11-20T02:24:35;100.73;;;48.10;;
56991;SDS011;42885;49.754;18.636;2022-11-20T02:27:10;107.35;;;50.52;;
56991;SDS011;42885;49.754;18.636;2022-11-20T02:29:53;116.97;;;52.95;;
56991;SDS011;42885;49.754;18.636;2022-11-20T02:32:30;106.83;;;49.27;;
56991;SDS011;42885;49.754;18.636;2022-11-20T02:37:39;96.17;;;46.88;;
56991;SDS011;42885;49.754;18.636;2022-11-20T02:40:10;100.07;;;47.53;;
56991;SDS011;42885;49.754;18.636;2022-11-20T02:42:41;90.22;;;45.78;;
56991;SDS011;42885;49.754;18.636;2022-11-20T02:45:12;92.88;;;46.55;;
56991;SDS011;42885;49.754;18.636;2022-11-20T02:47:43;94.03;;;45.35;;
56991;SDS011;42885;49.754;18.636;2022-11-20T02:50:14;90.40;;;44.50;;
56991;SDS011;42885;49.754;18.636;2022-11-20T02:52:45;100.10;;;46.10;;
56991;SDS011;42885;49.754;18.636;2022-11-20T02:55:16;86.72;;;41.80;;
56991;SDS011;42885;49.754;18.636;2022-11-20T02:57:47;89.47;;;42.98;;
56991;SDS011;42885;49.754;18.636;2022-11-20T03:00:18;82.30;;;40.10;;
56991;SDS011;42885;49.754;18.636;2022-11-20T03:02:49;85.38;;;44.18;;
56991;SDS011;42885;49.754;18.636;2022-11-20T03:05:21;80.15;;;41.88;;
56991;SDS011;42885;49.754;18.636;2022-11-20T03:07:52;82.60;;;40.17;;
56991;SDS011;42885;49.754;18.636;2022-11-20T03:10:23;83.15;;;41.45;;
56991;SDS011;42885;49.754;18.636;2022-11-20T03:12:54;86.10;;;41.42;;
56991;SDS011;42885;49.754;18.636;2022-11-20T03:15:26;89.73;;;42.93;;
56991;SDS011;42885;49.754;18.636;2022-11-20T03:17:57;82.30;;;42.03;;
56991;SDS011;42885;49.754;18.636;2022-11-20T03:20:27;87.12;;;42.17;;
56991;SDS011;42885;49.754;18.636;2022-11-20T03:22:59;82.25;;;41.77;;
56991;SDS011;42885;49.754;18.636;2022-11-20T03:25:30;89.05;;;43.00;;
56991;SDS011;42885;49.754;18.636;2022-11-20T03:28:01;90.65;;;42.78;;
56991;SDS011;42885;49.754;18.636;2022-11-20T03:30:32;85.65;;;43.23;;
56991;SDS011;42885;49.754;18.636;2022-11-20T03:33:04;84.97;;;42.23;;
56991;SDS011;42885;49.754;18.636;2022-11-20T03:35:35;83.15;;;43.80;;
56991;SDS011;42885;49.754;18.636;2022-11-20T03:38:06;86.87;;;43.03;;
56991;SDS011;42885;49.754;18.636;2022-11-20T03:40:37;93.60;;;46.30;;
56991;SDS011;42885;49.754;18.636;2022-11-20T03:43:09;92.02;;;45.67;;
56991;SDS011;42885;49.754;18.636;2022-11-20T03:45:40;95.50;;;45.70;;
56991;SDS011;42885;49.754;18.636;2022-11-20T03:48:11;91.42;;;45.54;;
56991;SDS011;42885;49.754;18.636;2022-11-20T03:50:42;96.65;;;48.13;;
56991;SDS011;42885;49.754;18.636;2022-11-20T03:53:13;94.65;;;47.43;;
56991;SDS011;42885;49.754;18.636;2022-11-20T03:55:45;87.53;;;45.95;;
56991;SDS011;42885;49.754;18.636;2022-11-20T03:58:17;93.40;;;46.40;;
56991;SDS011;42885;49.754;18.636;2022-11-20T04:00:50;92.33;;;44.47;;
56991;SDS011;42885;49.754;18.636;2022-11-20T04:03:21;87.37;;;44.37;;
56991;SDS011;42885;49.754;18.636;2022-11-20T04:05:52;86.70;;;44.67;;
56991;SDS011;42885;49.754;18.636;2022-11-20T04:08:23;88.07;;;45.65;;
56991;SDS011;42885;49.754;18.636;2022-11-20T04:10:54;87.08;;;43.28;;
56991;SDS011;42885;49.754;18.636;2022-11-20T04:13:25;87.88;;;43.17;;
56991;SDS011;42885;49.754;18.636;2022-11-20T04:16:03;83.33;;;43.10;;
56991;SDS011;42885;49.754;18.636;2022-11-20T04:18:28;79.37;;;41.73;;
56991;SDS011;42885;49.754;18.636;2022-11-20T04:21:00;80.83;;;41.88;;
56991;SDS011;42885;49.754;18.636;2022-11-20T04:23:31;86.20;;;42.83;;
56991;SDS011;42885;49.754;18.636;2022-11-20T04:26:06;88.25;;;42.85;;
56991;SDS011;42885;49.754;18.636;2022-11-20T04:28:39;85.30;;;43.63;;
56991;SDS011;42885;49.754;18.636;2022-11-20T04:31:20;86.02;;;43.60;;
56991;SDS011;42885;49.754;18.636;2022-11-20T04:33:46;87.88;;;44.18;;
56991;SDS011;42885;49.754;18.636;2022-11-20T04:36:21;88.13;;;45.03;;
56991;SDS011;42885;49.754;18.636;2022-11-20T04:38:59;92.08;;;48.10;;
56991;SDS011;42885;49.754;18.636;2022-11-20T04:41:29;88.15;;;46.60;;
56991;SDS011;42885;49.754;18.636;2022-11-20T04:44:02;86.72;;;46.30;;
56991;SDS011;42885;49.754;18.636;2022-11-20T04:46:42;84.50;;;45.33;;
56991;SDS011;42885;49.754;18.636;2022-11-20T04:49:10;89.00;;;46.25;;
56991;SDS011;42885;49.754;18.636;2022-11-20T04:51:41;86.77;;;46.70;;
56991;SDS011;42885;49.754;18.636;2022-11-20T04:54:12;86.72;;;45.70;;
56991;SDS011;42885;49.754;18.636;2022-11-20T04:56:43;84.65;;;45.75;;
56991;SDS011;42885;49.754;18.636;2022-11-20T04:59:13;87.90;;;46.35;;
56991;SDS011;42885;49.754;18.636;2022-11-20T05:01:44;87.20;;;44.93;;
56991;SDS011;42885;49.754;18.636;2022-11-20T05:04:15;93.12;;;45.70;;
56991;SDS011;42885;49.754;18.636;2022-11-20T05:06:47;90.97;;;45.55;;
56991;SDS011;42885;49.754;18.636;2022-11-20T05:09:20;91.10;;;45.70;;
56991;SDS011;42885;49.754;18.636;2022-11-20T05:11:50;91.17;;;44.60;;
56991;SDS011;42885;49.754;18.636;2022-11-20T05:14:21;87.55;;;45.35;;
56991;SDS011;42885;49.754;18.636;2022-11-20T05:16:52;84.77;;;43.38;;
56991;SDS011;42885;49.754;18.636;2022-11-20T05:19:23;88.37;;;43.68;;
56991;SDS011;42885;49.754;18.636;2022-11-20T05:21:54;93.25;;;44.83;;
56991;SDS011;42885;49.754;18.636;2022-11-20T05:24:25;91.43;;;44.60;;
56991;SDS011;42885;49.754;18.636;2022-11-20T05:26:56;90.72;;;43.65;;
56991;SDS011;42885;49.754;18.636;2022-11-20T05:29:27;82.27;;;44.13;;
56991;SDS011;42885;49.754;18.636;2022-11-20T05:31:58;82.75;;;43.02;;
56991;SDS011;42885;49.754;18.636;2022-11-20T05:34:28;101.90;;;48.87;;
56991;SDS011;42885;49.754;18.636;2022-11-20T05:36:59;86.25;;;45.12;;
56991;SDS011;42885;49.754;18.636;2022-11-20T05:39:30;85.03;;;44.05;;
56991;SDS011;42885;49.754;18.636;2022-11-20T05:42:01;89.92;;;43.95;;
56991;SDS011;42885;49.754;18.636;2022-11-20T05:44:50;86.02;;;44.08;;
56991;SDS011;42885;49.754;18.636;2022-11-20T05:47:21;82.82;;;42.50;;
56991;SDS011;42885;49.754;18.636;2022-11-20T05:49:52;81.63;;;43.20;;
56991;SDS011;42885;49.754;18.636;2022-11-20T05:52:23;86.22;;;43.05;;
56991;SDS011;42885;49.754;18.636;2022-11-20T05:54:54;91.20;;;43.65;;
56991;SDS011;42885;49.754;18.636;2022-11-20T05:57:25;79.90;;;42.43;;
56991;SDS011;42885;49.754;18.636;2022-11-20T05:59:56;82.95;;;41.90;;
56991;SDS011;42885;49.754;18.636;2022-11-20T06:02:27;84.55;;;42.40;;
56991;SDS011;42885;49.754;18.636;2022-11-20T06:04:58;91.57;;;46.60;;
56991;SDS011;42885;49.754;18.636;2022-11-20T06:07:29;89.70;;;43.58;;
56991;SDS011;42885;49.754;18.636;2022-11-20T06:10:00;86.47;;;44.63;;
56991;SDS011;42885;49.754;18.636;2022-11-20T06:12:31;114.75;;;54.45;;
56991;SDS011;42885;49.754;18.636;2022-11-20T06:15:03;102.90;;;52.10;;
56991;SDS011;42885;49.754;18.636;2022-11-20T06:17:34;94.33;;;48.90;;
56991;SDS011;42885;49.754;18.636;2022-11-20T06:20:05;88.95;;;45.30;;
56991;SDS011;42885;49.754;18.636;2022-11-20T06:22:37;91.42;;;46.35;;
56991;SDS011;42885;49.754;18.636;2022-11-20T06:25:08;91.65;;;44.77;;
56991;SDS011;42885;49.754;18.636;2022-11-20T06:27:38;91.25;;;45.52;;
56991;SDS011;42885;49.754;18.636;2022-11-20T06:30:10;84.30;;;44.10;;
56991;SDS011;42885;49.754;18.636;2022-11-20T06:32:41;85.35;;;45.73;;
56991;SDS011;42885;49.754;18.636;2022-11-20T06:35:12;88.90;;;45.73;;
56991;SDS011;42885;49.754;18.636;2022-11-20T06:37:43;89.62;;;44.03;;
56991;SDS011;42885;49.754;18.636;2022-11-20T06:40:14;86.87;;;45.05;;
56991;SDS011;42885;49.754;18.636;2022-11-20T06:42:44;84.07;;;43.90;;
56991;SDS011;42885;49.754;18.636;2022-11-20T06:45:15;84.30;;;43.33;;
56991;SDS011;42885;49.754;18.636;2022-11-20T06:47:47;85.55;;;43.45;;
56991;SDS011;42885;49.754;18.636;2022-11-20T06:50:18;90.65;;;44.98;;
56991;SDS011;42885;49.754;18.636;2022-11-20T06:52:49;87.40;;;42.88;;
56991;SDS011;42885;49.754;18.636;2022-11-20T06:55:20;92.17;;;44.65;;
56991;SDS011;42885;49.754;18.636;2022-11-20T06:57:51;86.85;;;43.17;;
56991;SDS011;42885;49.754;18.636;2022-11-20T07:00:22;89.17;;;46.07;;
56991;SDS011;42885;49.754;18.636;2022-11-20T07:02:53;96.10;;;46.58;;
56991;SDS011;42885;49.754;18.636;2022-11-20T07:05:24;107.67;;;51.48;;
56991;SDS011;42885;49.754;18.636;2022-11-20T07:07:57;106.37;;;49.03;;
56991;SDS011;42885;49.754;18.636;2022-11-20T07:10:28;106.90;;;50.75;;
56991;SDS011;42885;49.754;18.636;2022-11-20T07:12:59;99.77;;;49.73;;
56991;SDS011;42885;49.754;18.636;2022-11-20T07:15:30;95.70;;;47.17;;
56991;SDS011;42885;49.754;18.636;2022-11-20T07:18:08;93.07;;;47.23;;
56991;SDS011;42885;49.754;18.636;2022-11-20T07:20:34;99.67;;;46.95;;
56991;SDS011;42885;49.754;18.636;2022-11-20T07:23:05;89.40;;;44.33;;
56991;SDS011;42885;49.754;18.636;2022-11-20T07:25:35;87.47;;;45.10;;
56991;SDS011;42885;49.754;18.636;2022-11-20T07:28:06;83.33;;;43.23;;
56991;SDS011;42885;49.754;18.636;2022-11-20T07:30:39;80.67;;;41.47;;
56991;SDS011;42885;49.754;18.636;2022-11-20T07:33:11;77.78;;;41.40;;
56991;SDS011;42885;49.754;18.636;2022-11-20T07:35:43;81.47;;;41.75;;
56991;SDS011;42885;49.754;18.636;2022-11-20T07:38:14;72.82;;;40.65;;
56991;SDS011;42885;49.754;18.636;2022-11-20T07:40:45;77.35;;;40.48;;
56991;SDS011;42885;49.754;18.636;2022-11-20T07:43:16;76.25;;;40.52;;
56991;SDS011;42885;49.754;18.636;2022-11-20T07:45:47;71.90;;;39.67;;
56991;SDS011;42885;49.754;18.636;2022-11-20T07:48:18;74.30;;;38.73;;
56991;SDS011;42885;49.754;18.636;2022-11-20T07:50:49;73.60;;;40.45;;
56991;SDS011;42885;49.754;18.636;2022-11-20T07:53:21;77.50;;;40.57;;
56991;SDS011;42885;49.754;18.636;2022-11-20T07:55:53;69.30;;;38.00;;
56991;SDS011;42885;49.754;18.636;2022-11-20T07:58:23;71.20;;;37.13;;
56991;SDS011;42885;49.754;18.636;2022-11-20T08:00:54;68.90;;;37.45;;
56991;SDS011;42885;49.754;18.636;2022-11-20T08:03:25;70.77;;;38.00;;
56991;SDS011;42885;49.754;18.636;2022-11-20T08:05:59;80.83;;;40.67;;
56991;SDS011;42885;49.754;18.636;2022-11-20T08:08:31;75.12;;;42.48;;
56991;SDS011;42885;49.754;18.636;2022-11-20T08:11:02;81.15;;;42.65;;
56991;SDS011;42885;49.754;18.636;2022-11-20T08:13:51;315.00;;;188.90;;
56991;SDS011;42885;49.754;18.636;2022-11-20T08:16:42;88.55;;;46.20;;
56991;SDS011;42885;49.754;18.636;2022-11-20T08:19:14;84.20;;;44.03;;
56991;SDS011;42885;49.754;18.636;2022-11-20T08:21:46;79.17;;;42.43;;
56991;SDS011;42885;49.754;18.636;2022-11-20T08:24:18;79.63;;;40.57;;
56991;SDS011;42885;49.754;18.636;2022-11-20T08:26:49;75.72;;;41.77;;
56991;SDS011;42885;49.754;18.636;2022-11-20T08:29:21;74.92;;;41.05;;
56991;SDS011;42885;49.754;18.636;2022-11-20T08:31:52;81.32;;;41.35;;
56991;SDS011;42885;49.754;18.636;2022-11-20T08:34:24;77.50;;;42.05;;
56991;SDS011;42885;49.754;18.636;2022-11-20T08:36:55;77.23;;;41.57;;
56991;SDS011;42885;49.754;18.636;2022-11-20T08:39:26;72.87;;;40.93;;
56991;SDS011;42885;49.754;18.636;2022-11-20T08:41:57;76.62;;;42.43;;
56991;SDS011;42885;49.754;18.636;2022-11-20T08:44:28;81.28;;;42.78;;
56991;SDS011;42885;49.754;18.636;2022-11-20T08:47:00;76.45;;;41.60;;
56991;SDS011;42885;49.754;18.636;2022-11-20T08:49:31;81.78;;;44.60;;
56991;SDS011;42885;49.754;18.636;2022-11-20T08:52:01;86.30;;;45.75;;
56991;SDS011;42885;49.754;18.636;2022-11-20T08:54:33;89.10;;;47.38;;
56991;SDS011;42885;49.754;18.636;2022-11-20T08:57:04;92.70;;;48.45;;
56991;SDS011;42885;49.754;18.636;2022-11-20T08:59:35;95.03;;;49.35;;
56991;SDS011;42885;49.754;18.636;2022-11-20T09:02:06;94.07;;;47.83;;
56991;SDS011;42885;49.754;18.636;2022-11-20T09:04:37;93.62;;;47.13;;
56991;SDS011;42885;49.754;18.636;2022-11-20T09:07:08;93.87;;;47.35;;
56991;SDS011;42885;49.754;18.636;2022-11-20T09:09:39;80.57;;;43.48;;
56991;SDS011;42885;49.754;18.636;2022-11-20T09:12:10;84.85;;;41.95;;
56991;SDS011;42885;49.754;18.636;2022-11-20T09:14:41;86.75;;;42.95;;
56991;SDS011;42885;49.754;18.636;2022-11-20T09:17:12;77.05;;;40.10;;
56991;SDS011;42885;49.754;18.636;2022-11-20T09:19:43;70.22;;;38.92;;
56991;SDS011;42885;49.754;18.636;2022-11-20T09:22:15;60.98;;;34.90;;
56991;SDS011;42885;49.754;18.636;2022-11-20T09:24:46;68.85;;;36.68;;
56991;SDS011;42885;49.754;18.636;2022-11-20T09:27:17;62.97;;;35.43;;
56991;SDS011;42885;49.754;18.636;2022-11-20T09:29:52;68.47;;;36.15;;
56991;SDS011;42885;49.754;18.636;2022-11-20T09:32:23;68.52;;;36.80;;
56991;SDS011;42885;49.754;18.636;2022-11-20T09:34:54;60.50;;;34.50;;
56991;SDS011;42885;49.754;18.636;2022-11-20T09:37:25;61.85;;;32.98;;
56991;SDS011;42885;49.754;18.636;2022-11-20T09:39:56;61.63;;;34.00;;
56991;SDS011;42885;49.754;18.636;2022-11-20T09:51:10;62.80;;;35.28;;
56991;SDS011;42885;49.754;18.636;2022-11-20T09:53:58;60.12;;;34.65;;
56991;SDS011;42885;49.754;18.636;2022-11-20T09:56:29;68.00;;;36.28;;
56991;SDS011;42885;49.754;18.636;2022-11-20T09:59:02;67.90;;;38.42;;
56991;SDS011;42885;49.754;18.636;2022-11-20T10:01:35;69.95;;;39.30;;
56991;SDS011;42885;49.754;18.636;2022-11-20T10:04:13;68.10;;;37.95;;
56991;SDS011;42885;49.754;18.636;2022-11-20T10:06:56;65.72;;;38.40;;
56991;SDS011;42885;49.754;18.636;2022-11-20T10:09:35;62.00;;;36.80;;
56991;SDS011;42885;49.754;18.636;2022-11-20T10:12:16;65.72;;;37.55;;
56991;SDS011;42885;49.754;18.636;2022-11-20T10:14:51;63.70;;;38.20;;
56991;SDS011;42885;49.754;18.636;2022-11-20T10:26:17;53.38;;;32.48;;
56991;SDS011;42885;49.754;18.636;2022-11-20T10:29:15;57.43;;;34.38;;
56991;SDS011;42885;49.754;18.636;2022-11-20T10:31:52;57.00;;;33.93;;
56991;SDS011;42885;49.754;18.636;2022-11-20T10:34:37;51.98;;;30.52;;
56991;SDS011;42885;49.754;18.636;2022-11-20T10:37:23;47.70;;;27.87;;
56991;SDS011;42885;49.754;18.636;2022-11-20T10:39:58;41.37;;;24.20;;
56991;SDS011;42885;49.754;18.636;2022-11-20T10:45:31;44.48;;;26.55;;
56991;SDS011;42885;49.754;18.636;2022-11-20T10:47:54;43.28;;;25.60;;
56991;SDS011;42885;49.754;18.636;2022-11-20T10:50:32;44.98;;;27.35;;
56991;SDS011;42885;49.754;18.636;2022-11-20T10:55:48;46.95;;;26.65;;
56991;SDS011;42885;49.754;18.636;2022-11-20T11:01:04;47.27;;;27.43;;
56991;SDS011;42885;49.754;18.636;2022-11-20T11:03:37;43.30;;;25.67;;
56991;SDS011;42885;49.754;18.636;2022-11-20T11:09:10;47.10;;;26.55;;
56991;SDS011;42885;49.754;18.636;2022-11-20T11:11:43;42.20;;;25.62;;
56991;SDS011;42885;49.754;18.636;2022-11-20T11:14:15;41.40;;;25.70;;
56991;SDS011;42885;49.754;18.636;2022-11-20T11:16:49;42.07;;;25.17;;
56991;SDS011;42885;49.754;18.636;2022-11-20T11:19:22;44.70;;;25.55;;
56991;SDS011;42885;49.754;18.636;2022-11-20T11:21:54;42.73;;;25.23;;
56991;SDS011;42885;49.754;18.636;2022-11-20T11:24:26;41.45;;;24.65;;
56991;SDS011;42885;49.754;18.636;2022-11-20T11:27:00;42.62;;;23.70;;
56991;SDS011;42885;49.754;18.636;2022-11-20T11:29:35;40.00;;;24.02;;
56991;SDS011;42885;49.754;18.636;2022-11-20T11:32:07;62.95;;;43.98;;
56991;SDS011;42885;49.754;18.636;2022-11-20T11:34:40;68.25;;;44.08;;
56991;SDS011;42885;49.754;18.636;2022-11-20T11:37:19;36.83;;;22.10;;
56991;SDS011;42885;49.754;18.636;2022-11-20T11:39:49;39.90;;;22.10;;
56991;SDS011;42885;49.754;18.636;2022-11-20T11:42:20;34.85;;;21.30;;
56991;SDS011;42885;49.754;18.636;2022-11-20T11:44:51;32.13;;;19.92;;
56991;SDS011;42885;49.754;18.636;2022-11-20T11:47:37;31.50;;;19.87;;
56991;SDS011;42885;49.754;18.636;2022-11-20T11:50:18;31.07;;;19.73;;
56991;SDS011;42885;49.754;18.636;2022-11-20T11:55:58;26.37;;;16.52;;
56991;SDS011;42885;49.754;18.636;2022-11-20T11:58:46;30.15;;;17.65;;
56991;SDS011;42885;49.754;18.636;2022-11-20T12:01:30;29.17;;;17.87;;
56991;SDS011;42885;49.754;18.636;2022-11-20T12:04:25;29.05;;;18.65;;
56991;SDS011;42885;49.754;18.636;2022-11-20T12:07:20;29.90;;;18.75;;
56991;SDS011;42885;49.754;18.636;2022-11-20T12:09:49;27.55;;;16.87;;
56991;SDS011;42885;49.754;18.636;2022-11-20T12:12:23;28.33;;;17.80;;
56991;SDS011;42885;49.754;18.636;2022-11-20T12:14:59;27.22;;;17.55;;
56991;SDS011;42885;49.754;18.636;2022-11-20T12:17:31;24.05;;;17.32;;
56991;SDS011;42885;49.754;18.636;2022-11-20T12:20:02;23.02;;;16.10;;
56991;SDS011;42885;49.754;18.636;2022-11-20T12:25:22;22.15;;;16.50;;
56991;SDS011;42885;49.754;18.636;2022-11-20T12:30:41;25.52;;;17.48;;
56991;SDS011;42885;49.754;18.636;2022-11-20T12:36:01;25.25;;;16.62;;
56991;SDS011;42885;49.754;18.636;2022-11-20T12:41:40;25.45;;;17.25;;
56991;SDS011;42885;49.754;18.636;2022-11-20T12:47:57;25.35;;;16.10;;
56991;SDS011;42885;49.754;18.636;2022-11-20T12:53:27;28.02;;;17.75;;
56991;SDS011;42885;49.754;18.636;2022-11-20T12:56:48;27.05;;;16.25;;
56991;SDS011;42885;49.754;18.636;2022-11-20T13:01:45;27.13;;;16.32;;
56991;SDS011;42885;49.754;18.636;2022-11-20T13:07:13;24.47;;;15.88;;
56991;SDS011;42885;49.754;18.636;2022-11-20T13:09:48;23.90;;;15.20;;
56991;SDS011;42885;49.754;18.636;2022-11-20T13:18:08;110.85;;;75.42;;
56991;SDS011;42885;49.754;18.636;2022-11-20T13:20:42;23.85;;;14.90;;
56991;SDS011;42885;49.754;18.636;2022-11-20T13:23:24;22.30;;;13.70;;
56991;SDS011;42885;49.754;18.636;2022-11-20T13:26:03;23.55;;;14.00;;
56991;SDS011;42885;49.754;18.636;2022-11-20T13:28:36;22.42;;;12.93;;
56991;SDS011;42885;49.754;18.636;2022-11-20T13:31:09;20.93;;;13.40;;
56991;SDS011;42885;49.754;18.636;2022-11-20T13:33:49;22.17;;;13.68;;
56991;SDS011;42885;49.754;18.636;2022-11-20T13:36:24;22.32;;;13.40;;
56991;SDS011;42885;49.754;18.636;2022-11-20T13:38:55;21.17;;;12.98;;
56991;SDS011;42885;49.754;18.636;2022-11-20T13:41:28;25.70;;;14.05;;
56991;SDS011;42885;49.754;18.636;2022-11-20T13:46:43;20.32;;;12.40;;
56991;SDS011;42885;49.754;18.636;2022-11-20T13:49:38;247.87;;;161.13;;
56991;SDS011;42885;49.754;18.636;2022-11-20T14:01:35;22.20;;;13.22;;
56991;SDS011;42885;49.754;18.636;2022-11-20T14:03:30;20.17;;;12.60;;
56991;SDS011;42885;49.754;18.636;2022-11-20T14:06:05;18.62;;;12.05;;
56991;SDS011;42885;49.754;18.636;2022-11-20T14:08:39;20.37;;;12.47;;
56991;SDS011;42885;49.754;18.636;2022-11-20T14:11:19;25.52;;;15.03;;
56991;SDS011;42885;49.754;18.636;2022-11-20T14:16:33;23.98;;;13.88;;
56991;SDS011;42885;49.754;18.636;2022-11-20T14:21:54;26.82;;;15.13;;
56991;SDS011;42885;49.754;18.636;2022-11-20T14:24:26;19.83;;;13.20;;
56991;SDS011;42885;49.754;18.636;2022-11-20T14:26:57;21.48;;;13.28;;
56991;SDS011;42885;49.754;18.636;2022-11-20T14:29:29;23.10;;;13.50;;
56991;SDS011;42885;49.754;18.636;2022-11-20T14:32:06;20.35;;;13.58;;
56991;SDS011;42885;49.754;18.636;2022-11-20T14:34:40;23.50;;;13.90;;
56991;SDS011;42885;49.754;18.636;2022-11-20T14:37:23;25.40;;;14.58;;
56991;SDS011;42885;49.754;18.636;2022-11-20T14:39:56;30.30;;;18.20;;
56991;SDS011;42885;49.754;18.636;2022-11-20T14:42:28;32.40;;;20.47;;
56991;SDS011;42885;49.754;18.636;2022-11-20T14:45:00;31.50;;;19.52;;
56991;SDS011;42885;49.754;18.636;2022-11-20T14:47:31;37.35;;;20.48;;
56991;SDS011;42885;49.754;18.636;2022-11-20T14:50:03;39.25;;;22.85;;
56991;SDS011;42885;49.754;18.636;2022-11-20T14:52:36;46.58;;;25.15;;
56991;SDS011;42885;49.754;18.636;2022-11-20T14:55:07;40.30;;;23.38;;
56991;SDS011;42885;49.754;18.636;2022-11-20T14:57:40;36.38;;;21.10;;
56991;SDS011;42885;49.754;18.636;2022-11-20T15:02:47;35.17;;;20.82;;
56991;SDS011;42885;49.754;18.636;2022-11-20T15:05:20;37.57;;;21.93;;
56991;SDS011;42885;49.754;18.636;2022-11-20T15:08:06;37.40;;;21.15;;
56991;SDS011;42885;49.754;18.636;2022-11-20T15:10:45;36.08;;;21.48;;
56991;SDS011;42885;49.754;18.636;2022-11-20T15:13:22;35.92;;;21.33;;
56991;SDS011;42885;49.754;18.636;2022-11-20T15:15:51;34.83;;;20.05;;
56991;SDS011;42885;49.754;18.636;2022-11-20T15:18:36;35.47;;;21.30;;
56991;SDS011;42885;49.754;18.636;2022-11-20T15:21:13;31.97;;;19.95;;
56991;SDS011;42885;49.754;18.636;2022-11-20T15:23:41;37.20;;;22.10;;
56991;SDS011;42885;49.754;18.636;2022-11-20T15:26:14;35.35;;;21.00;;
56991;SDS011;42885;49.754;18.636;2022-11-20T15:28:47;36.63;;;19.85;;
56991;SDS011;42885;49.754;18.636;2022-11-20T15:31:20;38.27;;;21.77;;
56991;SDS011;42885;49.754;18.636;2022-11-20T15:33:53;38.05;;;21.05;;
56991;SDS011;42885;49.754;18.636;2022-11-20T15:36:24;39.60;;;22.95;;
56991;SDS011;42885;49.754;18.636;2022-11-20T15:38:55;33.10;;;20.92;;
56991;SDS011;42885;49.754;18.636;2022-11-20T15:41:25;31.65;;;19.52;;
56991;SDS011;42885;49.754;18.636;2022-11-20T15:43:56;35.73;;;20.05;;
56991;SDS011;42885;49.754;18.636;2022-11-20T15:46:28;34.63;;;20.45;;
56991;SDS011;42885;49.754;18.636;2022-11-20T15:49:06;33.67;;;19.32;;
56991;SDS011;42885;49.754;18.636;2022-11-20T15:51:47;31.57;;;20.08;;
56991;SDS011;42885;49.754;18.636;2022-11-20T15:54:19;32.33;;;20.27;;
56991;SDS011;42885;49.754;18.636;2022-11-20T15:56:53;32.20;;;19.42;;
56991;SDS011;42885;49.754;18.636;2022-11-20T15:59:24;33.20;;;20.10;;
56991;SDS011;42885;49.754;18.636;2022-11-20T16:01:56;35.30;;;19.47;;
56991;SDS011;42885;49.754;18.636;2022-11-20T16:04:27;33.92;;;20.00;;
56991;SDS011;42885;49.754;18.636;2022-11-20T16:06:58;39.25;;;22.98;;
56991;SDS011;42885;49.754;18.636;2022-11-20T16:09:29;54.63;;;32.90;;